Time;durP1;ratioP1;P1;durP2;ratioP2;P2;SDS_P1;SDS_P2;PMS_P1;PMS_P2;Temp;Humidity;BMP_temperature;BMP_pressure;BME280_temperature;BME280_humidity;BME280_pressure;Samples;Min_cycle;Max_cycle;Signal;HPM_P1;HPM_P2
2023/12/01 00:00:15;;;;;;;17.63;13.03;;;4.80;99.90;;;;;;960443;147;27330;-73
2023/12/01 00:02:42;;;;;;;14.80;12.00;;;4.80;99.90;;;;;;959566;147;27293;-74
2023/12/01 00:05:09;;;;;;;16.10;11.70;;;4.90;99.90;;;;;;960787;147;27867;-74
2023/12/01 00:07:35;;;;;;;12.17;10.67;;;4.90;99.90;;;;;;958858;147;27749;-74
2023/12/01 00:10:02;;;;;;;13.20;11.57;;;4.90;99.90;;;;;;960064;147;27414;-78
2023/12/01 00:12:28;;;;;;;14.63;11.47;;;4.90;99.90;;;;;;960855;147;27435;-74
2023/12/01 00:14:55;;;;;;;12.07;10.43;;;4.90;99.90;;;;;;959914;147;27301;-75
2023/12/01 00:17:22;;;;;;;14.07;11.13;;;4.90;99.90;;;;;;959350;147;27378;-77
2023/12/01 00:19:48;;;;;;;15.43;11.60;;;4.90;99.90;;;;;;960427;146;27421;-77
2023/12/01 00:22:15;;;;;;;12.17;10.87;;;4.90;99.90;;;;;;961113;146;27317;-77
2023/12/01 00:24:41;;;;;;;14.17;11.40;;;4.90;99.90;;;;;;960490;147;27446;-77
2023/12/01 00:27:08;;;;;;;14.80;12.63;;;4.90;99.90;;;;;;961040;147;27235;-77
2023/12/01 00:29:35;;;;;;;14.70;11.33;;;5.00;99.90;;;;;;960721;147;27291;-77
2023/12/01 00:32:01;;;;;;;15.27;12.03;;;5.00;99.90;;;;;;960689;147;27285;-77
2023/12/01 00:34:28;;;;;;;14.07;11.63;;;5.00;99.90;;;;;;961645;146;27352;-77
2023/12/01 00:36:57;;;;;;;12.30;11.00;;;5.00;99.90;;;;;;964322;146;27693;-77
2023/12/01 00:39:21;;;;;;;13.57;11.87;;;5.00;99.90;;;;;;964174;147;27319;-77
2023/12/01 00:41:47;;;;;;;15.50;12.30;;;5.00;99.90;;;;;;962983;147;27238;-77
2023/12/01 00:44:14;;;;;;;15.10;11.63;;;5.00;99.90;;;;;;963516;147;27321;-77
2023/12/01 00:46:41;;;;;;;16.73;12.93;;;5.00;99.90;;;;;;961954;147;27320;-73
2023/12/01 00:49:07;;;;;;;14.73;11.93;;;5.00;99.90;;;;;;963496;146;27372;-74
2023/12/01 00:51:34;;;;;;;15.30;12.53;;;5.00;99.90;;;;;;963007;147;27427;-74
2023/12/01 00:54:00;;;;;;;15.87;12.40;;;5.00;99.90;;;;;;964265;146;27290;-76
2023/12/01 00:56:28;;;;;;;17.17;12.93;;;5.00;99.90;;;;;;963459;146;27346;-74
2023/12/01 00:58:54;;;;;;;15.17;13.53;;;5.00;99.90;;;;;;966577;146;27223;-74
2023/12/01 01:01:20;;;;;;;15.27;13.27;;;5.10;99.90;;;;;;963164;147;27289;-75
2023/12/01 01:03:47;;;;;;;15.70;12.40;;;5.10;99.90;;;;;;963950;146;27702;-75
2023/12/01 01:06:13;;;;;;;15.37;12.53;;;5.10;99.90;;;;;;962777;147;27345;-73
2023/12/01 01:08:40;;;;;;;16.83;12.87;;;5.10;99.90;;;;;;934112;149;27443;-75
2023/12/01 01:11:07;;;;;;;16.03;13.13;;;5.10;99.90;;;;;;965733;146;27265;-76
2023/12/01 01:13:33;;;;;;;17.37;13.93;;;5.20;99.90;;;;;;966011;144;27438;-74
2023/12/01 01:16:00;;;;;;;16.23;13.73;;;5.20;99.90;;;;;;967919;146;27297;-78
2023/12/01 01:18:26;;;;;;;13.93;11.67;;;5.20;99.90;;;;;;967525;146;27349;-77
2023/12/01 01:20:53;;;;;;;14.43;12.63;;;5.20;99.90;;;;;;969464;146;27326;-75
2023/12/01 01:23:20;;;;;;;13.73;12.23;;;5.20;99.90;;;;;;966808;146;27274;-74
2023/12/01 01:25:46;;;;;;;13.83;12.33;;;5.30;99.90;;;;;;966276;146;27370;-76
2023/12/01 01:28:13;;;;;;;16.70;11.90;;;5.30;99.90;;;;;;966614;146;27788;-77
2023/12/01 01:30:39;;;;;;;17.07;13.00;;;5.30;99.90;;;;;;968620;146;27303;-77
2023/12/01 01:33:06;;;;;;;16.40;12.43;;;5.30;99.90;;;;;;966553;146;27284;-77
2023/12/01 01:35:32;;;;;;;18.53;13.70;;;5.30;99.90;;;;;;967218;144;27410;-77
2023/12/01 01:37:59;;;;;;;15.83;12.70;;;5.30;99.90;;;;;;969232;146;27285;-77
2023/12/01 01:40:26;;;;;;;18.93;13.23;;;5.40;99.90;;;;;;965467;145;27396;-77
2023/12/01 01:42:52;;;;;;;18.10;14.73;;;5.40;99.90;;;;;;966706;145;27314;-77
2023/12/01 01:45:19;;;;;;;19.27;14.13;;;5.40;99.90;;;;;;966538;145;27369;-77
2023/12/01 01:47:45;;;;;;;16.17;13.00;;;5.40;99.90;;;;;;967400;145;27339;-77
2023/12/01 01:50:12;;;;;;;15.70;13.93;;;5.40;99.90;;;;;;969049;145;27285;-77
2023/12/01 01:52:39;;;;;;;17.30;13.73;;;5.40;99.90;;;;;;968044;145;27312;-77
2023/12/01 01:55:06;;;;;;;17.37;13.63;;;5.40;99.90;;;;;;967001;143;27306;-77
2023/12/01 01:57:32;;;;;;;18.80;14.43;;;5.40;99.90;;;;;;966964;145;27309;-77
2023/12/01 01:59:58;;;;;;;17.63;13.33;;;5.50;99.90;;;;;;967373;145;27255;-77
2023/12/01 02:02:25;;;;;;;18.33;14.03;;;5.50;99.90;;;;;;968578;145;27344;-77
2023/12/01 02:04:53;;;;;;;18.27;13.37;;;5.40;99.90;;;;;;967288;145;27330;-77
2023/12/01 02:07:25;;;;;;;17.77;13.63;;;5.50;99.90;;;;;;968029;145;27265;-77
2023/12/01 02:09:50;;;;;;;17.50;13.67;;;5.50;99.90;;;;;;965407;145;27331;-77
2023/12/01 02:12:17;;;;;;;18.73;13.30;;;5.50;99.90;;;;;;969328;145;27895;-77
2023/12/01 02:14:44;;;;;;;18.47;14.27;;;5.50;99.90;;;;;;966920;145;27292;-77
2023/12/01 02:17:10;;;;;;;20.13;14.30;;;5.50;99.90;;;;;;967901;145;27352;-77
2023/12/01 02:19:37;;;;;;;19.87;14.50;;;5.50;99.90;;;;;;968139;145;27230;-77
2023/12/01 02:22:03;;;;;;;19.83;14.87;;;5.50;99.90;;;;;;968423;145;27419;-77
2023/12/01 02:24:30;;;;;;;20.40;15.10;;;5.40;99.90;;;;;;967515;145;27378;-77
2023/12/01 02:26:56;;;;;;;23.63;17.17;;;5.40;99.90;;;;;;968192;145;27242;-77
2023/12/01 02:29:23;;;;;;;21.60;15.30;;;5.40;99.90;;;;;;966319;145;27265;-77
2023/12/01 02:31:50;;;;;;;23.90;16.50;;;5.40;99.90;;;;;;966231;145;27387;-77
2023/12/01 02:34:21;;;;;;;25.27;16.80;;;5.40;99.90;;;;;;967529;145;27332;-77
2023/12/01 02:36:43;;;;;;;23.20;17.30;;;5.40;99.90;;;;;;968118;146;27371;-77
2023/12/01 02:39:13;;;;;;;24.77;16.27;;;5.40;99.90;;;;;;966633;146;27273;-77
2023/12/01 02:41:36;;;;;;;26.37;17.97;;;5.40;99.90;;;;;;968219;143;27387;-77
2023/12/01 02:44:03;;;;;;;25.47;16.63;;;5.50;99.90;;;;;;969770;145;27328;-77
2023/12/01 02:46:29;;;;;;;25.93;18.13;;;5.50;99.90;;;;;;968918;146;27446;-77
2023/12/01 02:48:56;;;;;;;21.70;16.50;;;5.50;99.90;;;;;;967447;146;27282;-77
2023/12/01 02:51:24;;;;;;;23.50;16.83;;;5.50;99.90;;;;;;966522;146;27282;-77
2023/12/01 02:53:49;;;;;;;22.97;15.97;;;5.50;99.90;;;;;;968098;144;27351;-77
2023/12/01 02:56:16;;;;;;;22.37;15.67;;;5.50;99.90;;;;;;967661;146;28106;-77
2023/12/01 02:58:42;;;;;;;20.33;15.03;;;5.50;99.90;;;;;;967398;146;27275;-77
2023/12/01 03:01:09;;;;;;;19.70;15.73;;;5.50;99.90;;;;;;967446;146;27274;-77
2023/12/01 03:03:35;;;;;;;20.00;14.73;;;5.40;99.90;;;;;;967515;146;27225;-77
2023/12/01 03:06:02;;;;;;;18.07;14.20;;;5.40;99.90;;;;;;969780;146;27797;-77
2023/12/01 03:08:28;;;;;;;18.47;14.43;;;5.40;99.90;;;;;;969264;146;27410;-74
2023/12/01 03:10:55;;;;;;;17.27;13.57;;;5.40;99.90;;;;;;966147;146;27282;-74
2023/12/01 03:13:22;;;;;;;16.27;13.40;;;5.40;99.90;;;;;;968884;145;27306;-74
2023/12/01 03:15:49;;;;;;;15.77;12.43;;;5.40;99.90;;;;;;969417;145;27269;-76
2023/12/01 03:18:15;;;;;;;16.67;13.00;;;5.40;99.90;;;;;;968952;144;27309;-73
2023/12/01 03:20:42;;;;;;;14.87;12.63;;;5.40;99.90;;;;;;969634;146;27388;-74
2023/12/01 03:23:08;;;;;;;17.30;12.77;;;5.40;99.90;;;;;;968573;146;27300;-74
2023/12/01 03:25:35;;;;;;;13.63;12.20;;;5.40;99.90;;;;;;967020;146;27418;-74
2023/12/01 03:28:01;;;;;;;14.83;12.10;;;5.40;99.90;;;;;;970193;146;27241;-76
2023/12/01 03:30:28;;;;;;;15.67;11.87;;;5.30;99.90;;;;;;968067;146;27329;-74
2023/12/01 03:32:54;;;;;;;15.57;12.77;;;5.30;99.90;;;;;;970506;146;27336;-74
2023/12/01 03:35:26;;;;;;;14.53;11.67;;;5.40;99.90;;;;;;970077;146;27326;-74
2023/12/01 03:37:50;;;;;;;14.67;11.30;;;5.40;99.90;;;;;;966854;146;27396;-77
2023/12/01 03:40:17;;;;;;;13.63;12.20;;;5.40;99.90;;;;;;968045;144;27304;-74
2023/12/01 03:42:46;;;;;;;12.90;10.60;;;5.40;99.90;;;;;;967755;145;27952;-73
2023/12/01 03:45:13;;;;;;;13.20;11.67;;;5.40;99.90;;;;;;968291;146;27272;-74
2023/12/01 03:47:42;;;;;;;13.17;11.00;;;5.40;99.90;;;;;;969413;146;27249;-77
2023/12/01 03:50:14;;;;;;;13.23;11.10;;;5.30;99.90;;;;;;967655;146;27345;-77
2023/12/01 03:52:41;;;;;;;11.77;10.57;;;5.30;99.90;;;;;;968886;146;27355;-77
2023/12/01 03:55:07;;;;;;;12.87;10.53;;;5.30;99.90;;;;;;966378;146;27282;-77
2023/12/01 03:57:34;;;;;;;13.97;11.50;;;5.30;99.90;;;;;;970840;146;27209;-77
2023/12/01 04:00:01;;;;;;;12.73;10.90;;;5.30;99.90;;;;;;967479;146;27312;-77
2023/12/01 04:02:27;;;;;;;12.43;10.70;;;5.30;99.90;;;;;;968906;146;27270;-77
2023/12/01 04:04:54;;;;;;;13.03;10.53;;;5.40;99.90;;;;;;968069;146;27385;-77
2023/12/01 04:07:20;;;;;;;14.27;12.07;;;5.40;99.90;;;;;;968933;146;27436;-77
2023/12/01 04:09:47;;;;;;;13.10;11.57;;;5.40;99.90;;;;;;968676;146;27406;-77
2023/12/01 04:12:14;;;;;;;15.70;11.97;;;5.40;99.90;;;;;;968166;146;27393;-77
2023/12/01 04:14:40;;;;;;;12.63;10.63;;;5.40;99.90;;;;;;969301;146;27358;-77
2023/12/01 04:17:10;;;;;;;12.80;11.20;;;5.40;99.90;;;;;;969108;146;27301;-77
2023/12/01 04:19:36;;;;;;;13.57;11.60;;;5.40;99.90;;;;;;965482;146;27305;-77
2023/12/01 04:22:04;;;;;;;11.40;9.97;;;5.40;99.90;;;;;;970096;146;27372;-73
2023/12/01 04:24:29;;;;;;;12.67;9.87;;;5.50;99.90;;;;;;967921;144;27332;-75
2023/12/01 04:26:56;;;;;;;13.53;11.00;;;5.50;99.90;;;;;;971156;146;27313;-74
2023/12/01 04:29:22;;;;;;;12.10;10.27;;;5.50;99.90;;;;;;969751;146;27417;-77
2023/12/01 04:31:49;;;;;;;12.00;10.73;;;5.50;99.90;;;;;;969234;146;27406;-78
2023/12/01 04:34:20;;;;;;;11.20;10.00;;;5.50;99.90;;;;;;970045;144;27330;-73
2023/12/01 04:36:43;;;;;;;12.77;10.53;;;5.50;99.90;;;;;;969199;146;27405;-74
2023/12/01 04:39:14;;;;;;;12.93;10.60;;;5.50;99.90;;;;;;968354;146;27582;-74
2023/12/01 04:41:35;;;;;;;13.03;11.23;;;5.50;99.90;;;;;;968871;143;27252;-74
2023/12/01 04:44:02;;;;;;;13.03;10.70;;;5.50;99.90;;;;;;968550;146;27407;-78
2023/12/01 04:46:29;;;;;;;12.63;10.93;;;5.50;99.90;;;;;;965724;146;27731;-75
2023/12/01 04:48:55;;;;;;;12.17;10.87;;;5.50;99.90;;;;;;968651;146;27477;-74
2023/12/01 04:51:22;;;;;;;12.97;10.97;;;5.50;99.90;;;;;;969111;146;27249;-73
2023/12/01 04:53:48;;;;;;;12.97;11.20;;;5.50;99.90;;;;;;969431;146;27357;-75
2023/12/01 04:56:15;;;;;;;15.53;11.40;;;5.50;99.90;;;;;;969566;146;27332;-73
2023/12/01 04:58:41;;;;;;;18.60;12.63;;;5.50;99.90;;;;;;968047;146;29536;-84
2023/12/01 05:01:08;;;;;;;16.87;12.80;;;5.50;99.90;;;;;;968739;146;27322;-84
2023/12/01 05:03:35;;;;;;;21.43;16.77;;;5.50;99.90;;;;;;968568;146;27225;-84
2023/12/01 05:06:01;;;;;;;24.60;16.33;;;5.50;99.90;;;;;;972184;146;27345;-76
2023/12/01 05:08:28;;;;;;;22.97;16.40;;;5.50;99.90;;;;;;968947;146;27377;-84
2023/12/01 05:10:56;;;;;;;23.53;16.70;;;5.50;99.90;;;;;;968927;146;27274;-84
2023/12/01 05:13:21;;;;;;;25.87;16.17;;;5.50;99.90;;;;;;968449;146;27889;-84
2023/12/01 05:15:48;;;;;;;28.63;16.90;;;5.50;99.90;;;;;;966901;146;27386;-82
2023/12/01 05:18:14;;;;;;;26.53;17.80;;;5.40;99.90;;;;;;969823;146;27356;-85
2023/12/01 05:20:41;;;;;;;22.77;16.80;;;5.40;99.90;;;;;;970721;146;27301;-86
2023/12/01 05:23:10;;;;;;;26.13;16.47;;;5.40;99.90;;;;;;970320;146;27261;-84
2023/12/01 05:25:34;;;;;;;31.90;17.90;;;5.40;99.90;;;;;;970620;146;27293;-84
2023/12/01 05:28:03;;;;;;;24.73;16.40;;;5.30;99.90;;;;;;968789;146;27312;-77
2023/12/01 05:30:30;;;;;;;24.50;16.87;;;5.30;99.90;;;;;;969216;146;27449;-77
2023/12/01 05:32:58;;;;;;;22.07;15.93;;;5.30;99.90;;;;;;967840;146;27325;-77
2023/12/01 05:35:23;;;;;;;23.93;16.30;;;5.30;99.90;;;;;;966864;146;27275;-77
2023/12/01 05:37:50;;;;;;;24.33;16.83;;;5.30;99.90;;;;;;967246;144;27464;-77
2023/12/01 05:40:25;;;;;;;23.33;17.20;;;5.30;99.90;;;;;;966920;145;27324;-77
2023/12/01 05:42:54;;;;;;;23.20;16.47;;;5.20;99.90;;;;;;961933;146;27357;-77
2023/12/01 05:45:18;;;;;;;26.10;17.43;;;5.20;99.90;;;;;;964895;143;27318;-77
2023/12/01 05:47:44;;;;;;;22.27;16.33;;;5.20;99.90;;;;;;967444;145;27323;-77
2023/12/01 05:50:14;;;;;;;23.87;16.60;;;5.20;99.90;;;;;;966386;145;27709;-78
2023/12/01 05:52:41;;;;;;;22.33;15.67;;;5.20;99.90;;;;;;966139;144;27249;-78
2023/12/01 05:55:14;;;;;;;27.33;16.27;;;5.30;99.90;;;;;;968309;145;27262;-78
2023/12/01 05:57:36;;;;;;;21.87;16.13;;;5.30;99.90;;;;;;966663;145;27423;-78
2023/12/01 06:00:04;;;;;;;21.20;15.43;;;5.30;99.90;;;;;;970847;146;28322;-78
2023/12/01 06:02:30;;;;;;;22.77;16.27;;;5.30;99.90;;;;;;966147;145;27302;-78
2023/12/01 06:04:57;;;;;;;21.43;15.53;;;5.30;99.90;;;;;;965637;146;27348;-78
2023/12/01 06:07:23;;;;;;;21.30;15.87;;;5.30;99.90;;;;;;966849;143;27333;-78
2023/12/01 06:09:49;;;;;;;24.90;14.60;;;5.40;99.90;;;;;;967896;145;27422;-85
2023/12/01 06:12:16;;;;;;;20.47;14.57;;;5.40;99.90;;;;;;967120;145;27405;-85
2023/12/01 06:14:42;;;;;;;20.90;14.97;;;5.40;99.90;;;;;;967431;145;27357;-82
2023/12/01 06:17:09;;;;;;;22.50;15.50;;;5.40;99.90;;;;;;969352;145;27249;-79
2023/12/01 06:19:36;;;;;;;15.60;12.67;;;5.40;99.90;;;;;;969501;146;27301;-85
2023/12/01 06:22:02;;;;;;;14.20;11.43;;;5.40;99.90;;;;;;965120;145;27286;-84
2023/12/01 06:24:29;;;;;;;12.93;10.43;;;5.40;99.90;;;;;;965847;145;27310;-84
2023/12/01 06:26:56;;;;;;;12.73;9.50;;;5.40;99.90;;;;;;965794;146;27297;-82
2023/12/01 06:29:22;;;;;;;10.63;9.53;;;5.40;99.90;;;;;;965826;144;27422;-84
2023/12/01 06:31:49;;;;;;;12.50;10.17;;;5.40;99.90;;;;;;965942;146;27322;-84
2023/12/01 06:34:15;;;;;;;11.70;9.20;;;5.40;99.90;;;;;;967501;146;27245;-83
2023/12/01 06:36:42;;;;;;;10.57;9.37;;;5.40;99.90;;;;;;967123;146;27270;-81
2023/12/01 06:39:10;;;;;;;10.57;9.20;;;5.40;99.90;;;;;;966624;146;27360;-80
2023/12/01 06:41:35;;;;;;;11.00;9.27;;;5.40;99.90;;;;;;963965;143;27325;-84
2023/12/01 06:44:02;;;;;;;12.27;10.20;;;5.40;99.90;;;;;;968144;146;28540;-84
2023/12/01 06:46:28;;;;;;;10.53;9.23;;;5.40;99.90;;;;;;966892;146;27282;-85
2023/12/01 06:48:55;;;;;;;10.27;9.10;;;5.40;99.90;;;;;;966189;145;27260;-82
2023/12/01 06:51:21;;;;;;;11.67;9.93;;;5.40;99.90;;;;;;970350;145;27313;-77
2023/12/01 06:53:48;;;;;;;12.13;10.13;;;5.40;99.90;;;;;;968294;146;27305;-80
2023/12/01 06:56:14;;;;;;;13.13;10.63;;;5.40;99.90;;;;;;968083;145;27367;-85
2023/12/01 06:58:41;;;;;;;10.87;9.77;;;5.40;99.90;;;;;;966045;145;27270;-84
2023/12/01 07:01:08;;;;;;;11.23;9.80;;;5.40;99.90;;;;;;969070;145;27262;-83
2023/12/01 07:03:34;;;;;;;11.40;10.10;;;5.40;99.90;;;;;;966794;145;27326;-83
2023/12/01 07:06:01;;;;;;;10.80;9.70;;;5.30;99.90;;;;;;966757;145;27395;-85
2023/12/01 07:08:28;;;;;;;12.13;10.00;;;5.40;99.90;;;;;;967266;145;27279;-84
2023/12/01 07:10:54;;;;;;;13.30;10.33;;;5.40;99.90;;;;;;966317;143;27805;-80
2023/12/01 07:13:21;;;;;;;11.53;9.37;;;5.40;99.90;;;;;;969814;145;27389;-76
2023/12/01 07:15:47;;;;;;;10.97;9.43;;;5.40;99.90;;;;;;967065;146;27377;-84
2023/12/01 07:18:14;;;;;;;11.17;9.83;;;5.40;99.90;;;;;;967504;146;27285;-85
2023/12/01 07:20:40;;;;;;;11.40;8.93;;;5.30;99.90;;;;;;966315;146;27286;-75
2023/12/01 07:23:07;;;;;;;11.27;10.13;;;5.30;99.90;;;;;;967232;145;27895;-76
2023/12/01 07:25:33;;;;;;;13.17;9.93;;;5.40;99.90;;;;;;967236;146;27369;-73
2023/12/01 07:28:05;;;;;;;10.67;9.23;;;5.30;99.90;;;;;;967693;146;28753;-74
2023/12/01 07:30:32;;;;;;;11.00;8.90;;;5.40;99.90;;;;;;966807;145;27294;-73
2023/12/01 07:32:59;;;;;;;10.70;8.77;;;5.30;99.90;;;;;;966003;146;27343;-77
2023/12/01 07:35:25;;;;;;;10.80;9.37;;;5.30;99.90;;;;;;964821;146;27465;-73
2023/12/01 07:37:52;;;;;;;10.60;9.50;;;5.30;99.90;;;;;;965749;144;27347;-73
2023/12/01 07:40:21;;;;;;;11.17;9.17;;;5.30;99.90;;;;;;961277;147;27251;-73
2023/12/01 07:42:47;;;;;;;12.63;9.50;;;5.30;99.90;;;;;;963486;146;27333;-78
2023/12/01 07:45:17;;;;;;;11.60;8.83;;;5.30;99.90;;;;;;961967;146;27326;-73
2023/12/01 07:47:41;;;;;;;10.47;9.00;;;5.30;99.90;;;;;;960937;147;27309;-73
2023/12/01 07:50:07;;;;;;;10.13;9.07;;;5.40;99.90;;;;;;960606;147;27265;-76
2023/12/01 07:52:34;;;;;;;10.80;9.30;;;5.40;99.90;;;;;;963217;147;27273;-76
2023/12/01 07:55:01;;;;;;;10.47;9.37;;;5.40;99.90;;;;;;960975;147;27411;-76
2023/12/01 07:57:27;;;;;;;10.50;9.40;;;5.40;99.90;;;;;;961033;147;27285;-76
2023/12/01 07:59:54;;;;;;;10.80;9.70;;;5.40;99.90;;;;;;962026;147;27299;-78
2023/12/01 08:02:20;;;;;;;13.70;10.30;;;5.40;99.90;;;;;;962194;147;27258;-79
2023/12/01 08:04:47;;;;;;;12.27;10.43;;;5.40;99.90;;;;;;962535;147;27779;-79
2023/12/01 08:07:13;;;;;;;13.43;11.63;;;5.40;99.90;;;;;;961890;147;27423;-79
2023/12/01 08:09:40;;;;;;;12.90;10.73;;;5.40;99.90;;;;;;960664;147;27326;-76
2023/12/01 08:12:07;;;;;;;12.80;11.50;;;5.40;99.90;;;;;;963626;147;27261;-76
2023/12/01 08:14:33;;;;;;;12.53;11.03;;;5.40;99.90;;;;;;960496;147;27271;-76
2023/12/01 08:17:00;;;;;;;12.97;11.13;;;5.40;99.90;;;;;;962504;147;27309;-76
2023/12/01 08:19:27;;;;;;;12.43;10.30;;;5.40;99.90;;;;;;962859;147;27294;-77
2023/12/01 08:21:53;;;;;;;13.00;10.83;;;5.40;99.90;;;;;;959625;147;27291;-76
2023/12/01 08:24:23;;;;;;;13.53;11.70;;;5.40;99.90;;;;;;961146;147;27447;-76
2023/12/01 08:26:49;;;;;;;14.77;11.70;;;5.40;99.90;;;;;;959810;146;27784;-77
2023/12/01 08:29:15;;;;;;;14.50;12.13;;;5.40;99.90;;;;;;959718;147;27302;-84
2023/12/01 08:31:43;;;;;;;14.33;11.43;;;5.40;99.90;;;;;;964334;147;27776;-85
2023/12/01 08:34:08;;;;;;;15.27;13.03;;;5.40;99.90;;;;;;961764;147;27864;-84
2023/12/01 08:36:35;;;;;;;14.13;11.60;;;5.40;99.90;;;;;;960092;147;27319;-84
2023/12/01 08:39:02;;;;;;;13.60;11.60;;;5.40;99.90;;;;;;963451;146;27450;-84
2023/12/01 08:41:28;;;;;;;14.37;12.00;;;5.40;99.90;;;;;;967241;143;27252;-86
2023/12/01 08:43:55;;;;;;;12.87;11.47;;;5.40;99.90;;;;;;966783;145;27217;-84
2023/12/01 08:46:21;;;;;;;13.20;11.80;;;5.40;99.90;;;;;;967639;145;27296;-77
2023/12/01 08:48:48;;;;;;;16.53;12.23;;;5.40;99.90;;;;;;966765;145;27345;-84
2023/12/01 08:51:15;;;;;;;14.57;11.47;;;5.40;99.90;;;;;;969367;145;27306;-82
2023/12/01 08:53:41;;;;;;;13.83;11.67;;;5.40;99.90;;;;;;967546;145;27259;-83
2023/12/01 08:56:08;;;;;;;12.63;11.33;;;5.40;99.90;;;;;;966942;145;27294;-83
2023/12/01 08:58:34;;;;;;;14.03;11.90;;;5.40;99.90;;;;;;967223;146;27316;-77
2023/12/01 09:01:02;;;;;;;12.10;10.77;;;5.50;99.90;;;;;;964305;145;27741;-77
2023/12/01 09:03:28;;;;;;;13.23;11.37;;;5.50;99.90;;;;;;967165;143;27246;-77
2023/12/01 09:05:54;;;;;;;13.20;11.70;;;5.50;99.90;;;;;;965222;145;27363;-78
2023/12/01 09:08:21;;;;;;;12.23;10.53;;;5.60;99.90;;;;;;966377;145;27340;-78
2023/12/01 09:10:47;;;;;;;12.57;11.27;;;5.50;99.90;;;;;;967383;145;27621;-78
2023/12/01 09:13:14;;;;;;;12.93;10.87;;;5.60;99.90;;;;;;966034;146;28397;-78
2023/12/01 09:15:41;;;;;;;12.53;11.00;;;5.60;99.90;;;;;;967483;145;27267;-78
2023/12/01 09:18:07;;;;;;;13.50;11.03;;;5.70;99.90;;;;;;966099;144;27377;-78
2023/12/01 09:20:34;;;;;;;12.80;10.73;;;5.70;99.90;;;;;;967750;142;27289;-78
2023/12/01 09:23:00;;;;;;;12.43;10.70;;;5.70;99.90;;;;;;967773;145;27405;-78
2023/12/01 09:25:27;;;;;;;12.17;10.87;;;5.70;99.90;;;;;;969565;143;27298;-78
2023/12/01 09:27:53;;;;;;;14.20;11.37;;;5.70;99.90;;;;;;967687;145;27365;-78
2023/12/01 09:30:20;;;;;;;12.83;11.47;;;5.70;99.90;;;;;;966126;146;27253;-78
2023/12/01 09:32:47;;;;;;;12.83;11.40;;;5.70;99.90;;;;;;966453;145;27320;-78
2023/12/01 09:35:15;;;;;;;13.37;11.70;;;5.70;99.90;;;;;;966187;145;27306;-78
2023/12/01 09:37:40;;;;;;;11.83;10.63;;;5.70;99.90;;;;;;966035;145;27269;-78
2023/12/01 09:40:07;;;;;;;14.87;11.07;;;5.80;99.90;;;;;;965040;145;27328;-76
2023/12/01 09:42:33;;;;;;;11.63;10.43;;;5.80;99.90;;;;;;967172;145;27334;-75
2023/12/01 09:45:00;;;;;;;12.83;10.73;;;5.90;99.90;;;;;;967201;146;27292;-74
2023/12/01 09:47:26;;;;;;;11.90;10.33;;;5.90;99.90;;;;;;966195;145;27427;-74
2023/12/01 09:49:53;;;;;;;10.73;9.73;;;6.00;99.90;;;;;;968994;143;27205;-74
2023/12/01 09:52:19;;;;;;;11.23;10.07;;;6.00;99.90;;;;;;966692;143;27373;-74
2023/12/01 09:54:46;;;;;;;10.83;9.73;;;6.00;99.90;;;;;;966769;145;27407;-75
2023/12/01 09:57:13;;;;;;;9.87;8.83;;;6.00;99.90;;;;;;967039;145;28085;-75
2023/12/01 09:59:39;;;;;;;10.37;8.83;;;6.00;99.90;;;;;;967878;145;27443;-75
2023/12/01 10:02:06;;;;;;;10.63;9.13;;;6.00;99.90;;;;;;965755;145;27401;-74
2023/12/01 10:04:32;;;;;;;11.87;10.10;;;6.00;99.90;;;;;;963656;145;27294;-75
2023/12/01 10:06:59;;;;;;;10.97;9.30;;;5.90;99.90;;;;;;967072;143;27317;-73
2023/12/01 10:09:26;;;;;;;10.57;8.50;;;5.90;99.90;;;;;;964144;145;27329;-74
2023/12/01 10:12:10;;;;;;;10.17;9.00;;;5.90;99.90;;;;;;968574;145;27250;-74
2023/12/01 10:14:37;;;;;;;9.37;8.20;;;5.90;99.90;;;;;;967618;145;27326;-74
2023/12/01 10:17:03;;;;;;;9.07;8.17;;;5.90;99.90;;;;;;967027;145;27333;-79
2023/12/01 10:19:33;;;;;;;8.70;7.90;;;5.90;99.90;;;;;;967247;146;27412;-74
2023/12/01 10:21:59;;;;;;;9.40;8.30;;;5.80;99.70;;;;;;968066;145;27329;-73
2023/12/01 10:24:26;;;;;;;8.53;7.73;;;5.80;99.60;;;;;;965567;145;27310;-75
2023/12/01 10:26:52;;;;;;;9.93;8.43;;;5.80;99.40;;;;;;967600;145;27898;-78
2023/12/01 10:29:31;;;;;;;8.93;7.60;;;5.80;99.40;;;;;;966753;145;27396;-75
2023/12/01 10:31:57;;;;;;;10.20;7.90;;;5.80;99.40;;;;;;965974;145;27302;-74
2023/12/01 10:34:24;;;;;;;8.93;8.03;;;5.70;99.30;;;;;;966571;145;27765;-74
2023/12/01 10:36:52;;;;;;;10.13;7.67;;;5.70;99.40;;;;;;966898;145;27302;-78
2023/12/01 10:39:17;;;;;;;7.43;6.73;;;5.70;99.40;;;;;;965132;145;27312;-74
2023/12/01 10:41:46;;;;;;;8.73;7.83;;;5.70;99.40;;;;;;965813;146;27293;-73
2023/12/01 10:44:13;;;;;;;8.50;7.60;;;5.70;99.30;;;;;;966490;146;27257;-74
2023/12/01 10:46:39;;;;;;;8.20;7.40;;;5.70;99.20;;;;;;965938;146;27434;-78
2023/12/01 10:49:06;;;;;;;8.87;7.97;;;5.70;99.30;;;;;;966524;146;27330;-74
2023/12/01 10:51:32;;;;;;;7.97;7.17;;;5.70;99.20;;;;;;968926;146;27288;-75
2023/12/01 10:53:59;;;;;;;8.27;7.10;;;5.70;99.10;;;;;;967895;146;27300;-74
2023/12/01 10:56:26;;;;;;;7.73;6.93;;;5.70;99.00;;;;;;966020;146;27405;-78
2023/12/01 10:58:52;;;;;;;8.17;7.13;;;5.70;98.80;;;;;;970311;146;27389;-74
2023/12/01 11:01:19;;;;;;;6.97;6.27;;;5.70;99.00;;;;;;965852;146;27360;-74
2023/12/01 11:03:45;;;;;;;8.57;7.20;;;5.70;98.90;;;;;;966618;146;27370;-75
2023/12/01 11:06:12;;;;;;;7.47;6.77;;;5.70;99.10;;;;;;966379;144;27273;-75
2023/12/01 11:09:01;;;;;;;7.23;6.53;;;5.70;99.10;;;;;;961591;146;27825;-74
2023/12/01 11:11:33;;;;;;;7.07;6.37;;;5.70;99.30;;;;;;964479;146;27788;-74
2023/12/01 11:14:02;;;;;;;7.63;6.93;;;5.70;99.10;;;;;;966280;146;27363;-74
2023/12/01 11:16:28;;;;;;;6.53;5.80;;;5.70;99.00;;;;;;966956;143;27370;-74
2023/12/01 11:18:57;;;;;;;7.13;6.43;;;5.70;99.10;;;;;;967041;146;27306;-74
2023/12/01 11:21:21;;;;;;;6.83;6.10;;;5.70;99.00;;;;;;969469;146;27748;-86
2023/12/01 11:23:49;;;;;;;6.97;6.30;;;5.70;98.90;;;;;;968321;146;27352;-83
2023/12/01 11:26:15;;;;;;;7.93;6.47;;;5.70;98.70;;;;;;968572;146;27296;-82
2023/12/01 11:31:21;;;;;;;7.77;6.83;;;5.80;98.80;;;;;;964965;146;27405;-85
2023/12/01 11:33:46;;;;;;;6.77;6.07;;;5.80;98.80;;;;;;968378;146;27262;-83
2023/12/01 11:36:28;;;;;;;7.23;5.93;;;5.80;98.60;;;;;;965696;144;27269;-85
2023/12/01 11:39:45;;;;;;;7.03;6.23;;;5.80;98.60;;;;;;964546;146;27316;-83
2023/12/01 11:41:47;;;;;;;6.80;5.93;;;5.80;98.50;;;;;;953485;145;27814;-86
2023/12/01 11:44:17;;;;;;;7.53;6.77;;;5.90;98.40;;;;;;966869;145;27242;-85
2023/12/01 11:46:43;;;;;;;12.77;6.70;;;5.90;98.40;;;;;;966436;145;27700;-83
2023/12/01 11:49:10;;;;;;;5.97;5.47;;;5.90;98.20;;;;;;968568;145;27410;-81
2023/12/01 11:51:36;;;;;;;5.77;5.20;;;5.90;97.90;;;;;;967201;145;27295;-86
2023/12/01 11:54:03;;;;;;;6.40;5.80;;;5.90;97.50;;;;;;967791;143;27382;-86
2023/12/01 11:56:31;;;;;;;6.30;5.70;;;5.90;97.30;;;;;;967033;144;27290;-86
2023/12/01 11:58:56;;;;;;;5.97;5.37;;;5.80;97.10;;;;;;968006;143;27213;-81
2023/12/01 12:01:23;;;;;;;5.67;5.17;;;5.80;97.00;;;;;;965389;146;27342;-86
2023/12/01 12:03:53;;;;;;;6.67;5.97;;;5.80;97.00;;;;;;966124;146;27285;-85
2023/12/01 12:06:19;;;;;;;6.50;5.80;;;5.80;97.00;;;;;;967522;145;27354;-85
2023/12/01 12:08:46;;;;;;;5.57;5.07;;;5.80;97.00;;;;;;965213;146;27736;-82
2023/12/01 12:11:12;;;;;;;6.80;5.73;;;5.80;97.00;;;;;;966322;145;27407;-77
2023/12/01 12:13:38;;;;;;;6.63;6.03;;;5.80;97.10;;;;;;967454;145;27297;-86
2023/12/01 12:16:05;;;;;;;7.27;6.57;;;5.80;97.10;;;;;;965504;146;27347;-85
2023/12/01 12:18:32;;;;;;;6.80;6.20;;;5.80;97.10;;;;;;967470;146;27277;-85
2023/12/01 12:21:04;;;;;;;6.20;5.63;;;5.80;97.10;;;;;;966627;145;27882;-83
2023/12/01 12:23:31;;;;;;;6.87;6.10;;;5.80;97.20;;;;;;967501;145;27321;-86
2023/12/01 12:26:19;;;;;;;6.33;5.67;;;5.80;96.80;;;;;;965875;146;27350;-86
2023/12/01 12:28:52;;;;;;;6.97;6.37;;;5.80;96.80;;;;;;965961;146;27410;-84
2023/12/01 12:31:17;;;;;;;6.77;6.17;;;5.80;96.90;;;;;;965667;145;27327;-74
2023/12/01 12:33:44;;;;;;;7.00;6.30;;;5.80;97.00;;;;;;968032;143;27370;-78
2023/12/01 12:36:13;;;;;;;8.50;7.60;;;5.80;97.10;;;;;;968612;145;27434;-73
2023/12/01 12:38:40;;;;;;;8.00;6.90;;;5.80;97.30;;;;;;967375;145;27286;-74
2023/12/01 12:41:27;;;;;;;7.20;6.30;;;5.80;97.10;;;;;;966975;145;27369;-74
2023/12/01 12:43:54;;;;;;;6.73;6.13;;;5.90;97.10;;;;;;969247;145;27401;-78